createdAt,value
2022-10-05T05:54:02.339Z,100.00
2022-10-05T05:57:35.863Z,100.00
2022-10-05T06:01:48.230Z,100.00
2022-10-05T06:13:57.553Z,100.00
2022-10-05T06:25:39.208Z,100.00
2022-10-05T06:28:21.210Z,100.00
2022-10-05T06:31:48.943Z,100.00
2022-10-05T06:35:06.704Z,100.00
2022-10-05T06:38:59.918Z,100.00
2022-10-05T06:42:16.629Z,100.00
2022-10-05T06:46:16.978Z,100.00
2022-10-05T06:49:46.865Z,100.00
2022-10-05T06:53:54.547Z,84.29
2022-10-05T06:57:07.021Z,89.40
2022-10-05T07:00:17.489Z,92.09
2022-10-05T07:03:58.455Z,91.99
2022-10-05T07:06:49.732Z,90.31
2022-10-05T07:09:43.478Z,84.48
2022-10-05T07:13:13.575Z,84.14
2022-10-05T07:16:21.978Z,83.35
2022-10-05T07:19:37.443Z,79.92
2022-10-05T07:22:57.362Z,80.37
2022-10-05T07:25:44.916Z,81.06
2022-10-05T07:29:13.334Z,80.96
2022-10-05T07:32:03.351Z,80.62
2022-10-05T07:35:41.197Z,84.01
2022-10-05T07:38:48.714Z,84.32
2022-10-05T07:41:52.587Z,82.64
2022-10-05T07:44:51.518Z,85.01
2022-10-05T07:47:50.092Z,82.49
2022-10-05T07:51:08.213Z,77.14
2022-10-05T07:53:51.046Z,80.36
2022-10-05T07:56:45.212Z,80.41
2022-10-05T07:59:48.332Z,74.22
2022-10-05T08:03:12.673Z,71.78
2022-10-05T08:06:14.829Z,63.85
2022-10-05T08:08:57.767Z,59.66
2022-10-05T08:11:40.706Z,59.01
2022-10-05T08:14:33.855Z,57.93
2022-10-05T08:17:15.730Z,58.85
2022-10-05T08:20:29.162Z,59.94
2022-10-05T08:23:29.672Z,57.71
2022-10-05T08:26:14.376Z,58.96
2022-10-05T08:29:28.686Z,60.05
2022-10-05T08:32:13.521Z,59.34
2022-10-05T08:35:04.293Z,59.21
2022-10-05T08:37:46.053Z,54.83
2022-10-05T08:40:46.364Z,53.79
2022-10-05T08:44:02.367Z,55.08
2022-10-05T08:47:20.229Z,56.71
2022-10-05T08:50:08.743Z,56.26
2022-10-05T08:53:22.190Z,54.99
2022-10-05T08:56:43.070Z,54.67
2022-10-05T08:59:50.920Z,57.39
2022-10-05T09:02:54.388Z,59.12
2022-10-05T09:06:38.244Z,58.99
2022-10-05T09:09:50.819Z,60.55
2022-10-05T09:13:06.883Z,60.09
2022-10-05T09:15:56.689Z,60.12
2022-10-05T09:18:47.265Z,60.63
2022-10-05T09:21:46.231Z,58.77
2022-10-05T09:25:00.109Z,58.99
2022-10-05T09:28:04.067Z,61.57
2022-10-05T09:31:17.457Z,58.75
2022-10-05T09:34:41.620Z,56.37
2022-10-05T09:37:38.165Z,55.52
2022-10-05T09:41:04.571Z,53.98
2022-10-05T09:45:06.291Z,51.95
2022-10-05T09:48:32.384Z,52.97
2022-10-05T09:51:27.178Z,50.95
2022-10-05T09:54:53.081Z,48.49
2022-10-05T09:58:12.580Z,48.12
2022-10-05T10:01:34.717Z,48.74
2022-10-05T10:04:50.757Z,52.28
2022-10-05T10:08:09.413Z,52.59
2022-10-05T10:10:51.446Z,51.37
2022-10-05T10:13:54.922Z,50.02
2022-10-05T10:17:29.603Z,52.64
2022-10-05T10:20:28.620Z,51.62
2022-10-05T10:23:50.960Z,51.65
2022-10-05T10:26:38.473Z,54.98
2022-10-05T10:29:31.478Z,53.47
2022-10-05T10:32:24.782Z,55.99
2022-10-05T10:35:44.062Z,58.64
2022-10-05T10:38:39.444Z,58.18
2022-10-05T10:41:56.799Z,60.44
2022-10-05T10:44:59.767Z,57.52
2022-10-05T10:48:06.516Z,57.03
2022-10-05T10:51:09.005Z,57.99
2022-10-05T10:54:14.390Z,55.98
2022-10-05T10:56:57.556Z,56.61
2022-10-05T11:00:19.851Z,57.95
2022-10-05T11:03:43.040Z,57.70
2022-10-05T11:07:28.109Z,58.12
2022-10-05T11:10:51.459Z,56.00
2022-10-05T11:14:50.302Z,55.40
2022-10-05T11:18:00.044Z,50.33
2022-10-05T11:24:59.221Z,47.57
2022-10-05T11:31:45.317Z,46.54
2022-10-05T11:34:48.362Z,46.03
2022-10-05T11:38:04.008Z,46.86
2022-10-05T11:41:10.942Z,47.49
2022-10-05T11:44:33.674Z,47.21
2022-10-05T11:47:33.560Z,50.53
2022-10-05T11:50:59.618Z,48.74
2022-10-05T11:54:15.353Z,51.92
2022-10-05T11:57:28.656Z,53.17
2022-10-05T12:00:25.697Z,53.59
2022-10-05T12:03:18.170Z,56.20
2022-10-05T12:10:29.606Z,61.18
2022-10-05T12:13:54.961Z,60.41
2022-10-05T12:17:16.647Z,60.16
2022-10-05T12:20:01.372Z,58.90
2022-10-05T12:23:19.934Z,59.11
2022-10-05T12:26:44.920Z,59.89
2022-10-05T12:29:57.967Z,59.36
2022-10-05T12:33:25.079Z,59.02
2022-10-05T12:36:59.223Z,62.11
2022-10-05T12:40:03.307Z,60.54
2022-10-05T12:43:21.020Z,58.92
2022-10-05T12:46:35.655Z,54.96
2022-10-05T12:50:08.704Z,55.60
2022-10-05T12:53:20.091Z,56.21
2022-10-05T12:56:31.393Z,55.19
2022-10-05T12:59:45.606Z,55.58
2022-10-05T13:02:51.211Z,53.24
2022-10-05T13:06:04.590Z,54.53
2022-10-05T13:08:59.413Z,54.76
2022-10-05T13:11:50.791Z,54.60
2022-10-05T13:15:31.169Z,53.10
2022-10-05T13:18:43.849Z,52.98
2022-10-05T13:22:32.070Z,53.28
2022-10-05T13:25:33.960Z,52.58
2022-10-05T13:28:58.563Z,52.46
2022-10-05T13:31:49.111Z,48.54
2022-10-05T13:35:22.338Z,49.65
2022-10-05T13:38:27.504Z,51.22
2022-10-05T13:42:18.499Z,49.91
2022-10-05T13:49:42.167Z,49.12
2022-10-05T13:52:45.514Z,50.36
2022-10-05T13:56:26.988Z,49.58
2022-10-05T13:59:38.140Z,51.87
2022-10-05T14:02:23.253Z,49.97
2022-10-05T14:05:25.918Z,49.41
2022-10-05T14:08:39.505Z,49.33
2022-10-05T14:12:13.568Z,49.45
2022-10-05T14:15:42.420Z,51.76
2022-10-05T14:18:34.731Z,52.71
2022-10-05T14:21:26.039Z,52.65
2022-10-05T14:28:33.028Z,54.27
2022-10-05T14:32:02.110Z,55.34
2022-10-05T14:35:25.487Z,54.66
2022-10-05T14:39:23.780Z,56.10
2022-10-05T14:42:31.884Z,55.81
2022-10-05T14:45:37.476Z,57.16
2022-10-05T14:48:17.832Z,58.45
2022-10-05T14:51:57.915Z,57.14
2022-10-05T14:55:16.218Z,56.32
2022-10-05T15:03:10.304Z,60.11
2022-10-05T15:06:27.249Z,59.33
2022-10-05T15:10:17.474Z,60.17
2022-10-05T15:13:48.778Z,61.14
2022-10-05T15:16:40.701Z,61.36
2022-10-05T15:31:34.603Z,66.36
2022-10-05T15:34:57.281Z,67.86
2022-10-05T15:38:41.352Z,68.01
2022-10-05T15:42:06.702Z,67.71
2022-10-05T15:46:19.179Z,69.52
2022-10-05T15:56:44.658Z,72.64
2022-10-05T16:00:10.876Z,72.92
2022-10-05T16:04:10.799Z,73.59
2022-10-05T16:11:10.560Z,77.74
2022-10-05T16:14:29.100Z,77.10
2022-10-05T16:17:41.330Z,77.19
2022-10-05T19:31:30.426Z,100.00
2022-10-05T19:34:43.091Z,100.00
2022-10-05T19:37:19.517Z,100.00
2022-10-05T19:40:07.254Z,100.00
2022-10-05T19:42:45.345Z,99.35
2022-10-05T19:49:57.075Z,100.00
2022-10-05T19:52:28.695Z,100.00
2022-10-05T19:55:17.186Z,100.00
2022-10-05T19:58:21.203Z,100.00
2022-10-05T20:01:06.364Z,100.00
2022-10-05T20:03:38.195Z,100.00
2022-10-05T20:06:10.995Z,100.00
2022-10-05T20:08:45.034Z,100.00
2022-10-05T20:11:19.697Z,100.00
2022-10-05T20:14:01.186Z,100.00
2022-10-05T20:16:53.263Z,100.00
2022-10-05T20:19:52.139Z,100.00
2022-10-05T20:22:28.515Z,100.00
2022-10-05T20:24:58.934Z,100.00
2022-10-05T20:27:42.547Z,100.00
2022-10-05T20:30:33.926Z,100.00
2022-10-05T20:33:01.769Z,100.00
2022-10-05T20:35:30.881Z,100.00
2022-10-05T20:38:00.187Z,100.00
2022-10-05T20:40:29.902Z,100.00
2022-10-05T20:42:59.136Z,100.00
2022-10-05T20:45:27.350Z,100.00
2022-10-05T20:47:55.171Z,100.00
2022-10-05T20:50:23.642Z,100.00
2022-10-05T20:52:51.392Z,100.00
2022-10-05T20:55:20.881Z,100.00
2022-10-05T20:57:50.975Z,100.00
2022-10-05T21:00:20.374Z,100.00
2022-10-05T21:02:50.635Z,100.00
2022-10-05T21:05:18.474Z,100.00
2022-10-05T21:12:19.770Z,100.00
2022-10-05T21:14:47.566Z,100.00
2022-10-05T21:17:15.496Z,100.00
2022-10-05T21:19:43.297Z,100.00
2022-10-05T21:22:10.942Z,100.00
2022-10-05T21:24:41.077Z,100.00
2022-10-05T21:27:11.540Z,100.00
2022-10-05T21:29:41.561Z,100.00
2022-10-05T21:32:11.888Z,100.00
2022-10-05T21:34:41.654Z,100.00
2022-10-05T21:37:14.195Z,100.00
2022-10-05T21:39:42.400Z,100.00
2022-10-05T21:42:09.768Z,100.00
2022-10-05T21:44:37.341Z,100.00
2022-10-05T21:47:07.052Z,100.00
2022-10-05T21:49:36.268Z,100.00
2022-10-05T21:52:05.897Z,100.00
2022-10-05T21:54:35.177Z,100.00
2022-10-05T21:57:05.604Z,100.00
2022-10-05T21:59:34.870Z,100.00
2022-10-05T22:02:05.229Z,100.00
2022-10-05T22:04:32.583Z,100.00
2022-10-05T22:07:01.321Z,100.00
2022-10-05T22:09:28.691Z,100.00
2022-10-05T22:11:57.609Z,100.00
2022-10-05T22:14:25.487Z,100.00
2022-10-05T22:16:53.512Z,100.00
2022-10-05T22:19:22.332Z,100.00
2022-10-05T22:21:51.367Z,100.00
2022-10-05T22:24:20.477Z,100.00
2022-10-05T22:26:51.709Z,100.00
2022-10-05T22:29:20.518Z,100.00
2022-10-05T22:31:49.282Z,100.00
2022-10-05T22:34:18.475Z,100.00
2022-10-05T22:36:48.542Z,100.00
2022-10-05T22:39:17.220Z,100.00
2022-10-05T22:41:46.594Z,100.00
2022-10-05T22:44:14.631Z,100.00
2022-10-05T22:46:43.507Z,100.00
2022-10-05T22:49:11.829Z,100.00
2022-10-05T22:51:39.577Z,100.00
2022-10-05T22:54:07.078Z,100.00
2022-10-05T22:56:34.732Z,100.00
2022-10-05T22:59:03.542Z,100.00
2022-10-05T23:01:31.007Z,100.00
2022-10-05T23:04:00.331Z,100.00
2022-10-05T23:06:28.816Z,100.00
2022-10-05T23:08:57.439Z,100.00
2022-10-05T23:11:28.928Z,100.00
2022-10-05T23:13:58.126Z,100.00
2022-10-05T23:16:27.913Z,100.00
2022-10-05T23:18:56.991Z,100.00
2022-10-05T23:21:27.730Z,100.00
2022-10-05T23:23:55.215Z,100.00
2022-10-05T23:26:26.633Z,100.00
2022-10-05T23:28:54.806Z,100.00
2022-10-05T23:31:27.555Z,100.00
2022-10-05T23:33:56.628Z,100.00
2022-10-05T23:36:27.865Z,100.00
2022-10-05T23:38:55.469Z,100.00
2022-10-05T23:41:23.751Z,100.00
2022-10-05T23:43:52.216Z,100.00
2022-10-05T23:46:19.962Z,100.00
2022-10-05T23:48:50.461Z,100.00
2022-10-05T23:51:19.404Z,100.00
2022-10-05T23:53:46.985Z,100.00
2022-10-05T23:56:14.424Z,100.00
2022-10-05T23:58:45.830Z,100.00
